createdAt,value
2023-01-19T00:01:34.280Z,97447.64
2023-01-19T00:04:51.361Z,97448.64
2023-01-19T00:08:09.992Z,97450.13
2023-01-19T00:11:26.623Z,97450.32
2023-01-19T00:14:42.878Z,97451.77
2023-01-19T00:17:59.377Z,97458.05
2023-01-19T00:21:16.604Z,97456.13
2023-01-19T00:24:33.635Z,97464.33
2023-01-19T00:27:51.251Z,97461.71
2023-01-19T00:31:07.897Z,97457.62
2023-01-19T00:34:27.695Z,97451.95
2023-01-19T00:37:46.041Z,97464.40
2023-01-19T00:41:03.152Z,97462.44
2023-01-19T00:44:20.978Z,97475.64
2023-01-19T00:47:40.053Z,97461.95
2023-01-19T00:50:58.225Z,97464.40
2023-01-19T00:54:14.532Z,97467.20
2023-01-19T00:57:30.858Z,97460.34
2023-01-19T01:00:47.123Z,97454.47
2023-01-19T01:04:03.620Z,97461.18
2023-01-19T01:07:19.943Z,97458.92
2023-01-19T01:10:38.164Z,97458.60
2023-01-19T01:13:54.431Z,97456.99
2023-01-19T01:17:12.114Z,97452.73
2023-01-19T01:20:31.802Z,97444.74
2023-01-19T01:23:48.099Z,97444.55
2023-01-19T01:27:04.664Z,97441.87
2023-01-19T01:30:23.665Z,97434.20
2023-01-19T01:33:42.008Z,97436.29
2023-01-19T01:36:58.921Z,97433.68
2023-01-19T01:40:22.137Z,97426.98
2023-01-19T01:43:54.228Z,97429.42
2023-01-19T01:47:11.436Z,97432.39
2023-01-19T01:50:32.462Z,97434.71
2023-01-19T01:53:50.615Z,97416.73
2023-01-19T01:57:12.138Z,97420.02
2023-01-19T02:00:37.159Z,97412.38
2023-01-19T02:03:53.484Z,97417.44
2023-01-19T02:07:23.714Z,97417.09
2023-01-19T02:10:54.521Z,97417.77
2023-01-19T02:14:13.892Z,97422.47
2023-01-19T02:17:30.820Z,97414.70
2023-01-19T02:20:51.946Z,97412.61
2023-01-19T02:24:10.899Z,97414.54
2023-01-19T02:27:28.697Z,97409.48
2023-01-19T02:30:47.236Z,97412.89
2023-01-19T02:34:05.690Z,97406.03
2023-01-19T02:37:24.219Z,97406.87
2023-01-19T02:40:41.725Z,97400.52
2023-01-19T02:43:59.807Z,97399.68
2023-01-19T02:47:16.296Z,97404.55
2023-01-19T02:50:58.187Z,97408.97
2023-01-19T02:54:51.765Z,97418.38
2023-01-19T02:58:13.701Z,97431.49
2023-01-19T03:01:36.392Z,97423.80
2023-01-19T03:05:04.982Z,97428.40
2023-01-19T03:08:27.394Z,97426.02
2023-01-19T03:11:47.564Z,97430.75
2023-01-19T03:15:07.685Z,97435.68
2023-01-19T03:18:28.811Z,97430.75
2023-01-19T03:21:51.088Z,97430.63
2023-01-19T03:25:09.541Z,97436.48
2023-01-19T03:28:28.954Z,97435.17
2023-01-19T03:31:49.578Z,97424.72
2023-01-19T03:35:11.254Z,97434.36
2023-01-19T03:38:32.407Z,97441.20
2023-01-19T03:41:51.023Z,97445.09
2023-01-19T03:45:10.914Z,97446.58
2023-01-19T03:48:28.157Z,97456.83
2023-01-19T03:51:47.351Z,97443.26
2023-01-19T03:55:04.695Z,97454.41
2023-01-19T03:58:21.299Z,97455.80
2023-01-19T04:01:37.785Z,97465.28
2023-01-19T04:04:54.260Z,97460.73
2023-01-19T04:08:14.485Z,97468.56
2023-01-19T04:11:34.115Z,97464.34
2023-01-19T04:14:50.493Z,97462.23
2023-01-19T04:18:09.445Z,97459.63
2023-01-19T04:21:27.178Z,97436.44
2023-01-19T04:24:43.918Z,97420.25
2023-01-19T04:28:03.382Z,97417.83
2023-01-19T04:31:20.096Z,97418.17
2023-01-19T04:34:36.295Z,97420.33
2023-01-19T04:37:52.638Z,97418.78
2023-01-19T04:41:09.021Z,97433.83
2023-01-19T04:44:25.242Z,97442.63
2023-01-19T04:47:43.313Z,97445.95
2023-01-19T04:51:00.763Z,97460.03
2023-01-19T04:54:17.100Z,97472.66
2023-01-19T04:57:33.358Z,97475.92
2023-01-19T05:00:49.734Z,97464.72
2023-01-19T05:04:09.252Z,97474.17
2023-01-19T05:07:23.035Z,97478.94
2023-01-19T05:10:39.101Z,97481.88
2023-01-19T05:13:55.264Z,97483.98
2023-01-19T05:17:11.466Z,97491.14
2023-01-19T05:20:28.250Z,97489.33
2023-01-19T05:23:44.453Z,97500.45
2023-01-19T05:27:01.010Z,97504.81
2023-01-19T05:30:20.340Z,97514.55
2023-01-19T05:33:36.725Z,97518.33
2023-01-19T05:36:53.356Z,97512.97
2023-01-19T05:40:09.920Z,97520.65
2023-01-19T05:43:28.687Z,97524.03
2023-01-19T05:46:45.257Z,97528.77
2023-01-19T05:50:04.651Z,97527.52
2023-01-19T05:53:21.473Z,97528.16
2023-01-19T05:56:39.517Z,97534.52
2023-01-19T05:59:55.917Z,97535.88
2023-01-19T06:03:12.066Z,97539.84
2023-01-19T06:06:28.488Z,97546.10
2023-01-19T06:09:44.931Z,97559.84
2023-01-19T06:13:01.607Z,97552.68
2023-01-19T06:16:20.065Z,97533.39
2023-01-19T06:19:37.648Z,97536.68
2023-01-19T06:22:54.691Z,97539.97
2023-01-19T06:26:11.688Z,97547.64
2023-01-19T06:29:29.447Z,97574.23
2023-01-19T06:32:46.151Z,97576.69
2023-01-19T06:36:03.326Z,97599.56
2023-01-19T06:39:20.858Z,97604.07
2023-01-19T06:42:38.320Z,97606.45
2023-01-19T06:45:56.979Z,97616.70
2023-01-19T06:49:13.522Z,97613.85
2023-01-19T06:52:29.981Z,97611.03
2023-01-19T06:55:46.278Z,97603.63
2023-01-19T06:59:02.927Z,97613.34
2023-01-19T07:02:26.913Z,97632.06
2023-01-19T07:05:41.952Z,97621.09
2023-01-19T07:08:58.758Z,97632.66
2023-01-19T07:12:25.395Z,97620.94
2023-01-19T07:15:43.067Z,97641.34
2023-01-19T07:18:59.535Z,97641.06
2023-01-19T07:22:16.206Z,97645.17
2023-01-19T07:25:49.749Z,97627.70
2023-01-19T07:29:08.010Z,97620.25
2023-01-19T07:32:27.990Z,97639.57
2023-01-19T07:35:44.244Z,97626.09
2023-01-19T07:39:01.152Z,97634.35
2023-01-19T07:42:21.202Z,97613.54
2023-01-19T07:45:38.014Z,97610.59
2023-01-19T07:49:07.438Z,97615.34
2023-01-19T07:52:24.654Z,97605.14
2023-01-19T07:55:41.339Z,97606.84
2023-01-19T07:59:00.205Z,97605.44
2023-01-19T08:02:20.356Z,97621.39
2023-01-19T08:05:37.735Z,97629.08
2023-01-19T08:08:55.447Z,97618.88
2023-01-19T08:12:12.979Z,97637.66
2023-01-19T08:15:30.861Z,97650.22
2023-01-19T08:18:47.249Z,97648.41
2023-01-19T08:22:12.171Z,97655.81
2023-01-19T08:25:30.229Z,97651.92
2023-01-19T08:28:46.465Z,97650.64
2023-01-19T08:32:19.379Z,97655.94
2023-01-19T08:35:51.065Z,97653.13
2023-01-19T08:39:13.218Z,97651.17
2023-01-19T08:42:32.737Z,97652.22
2023-01-19T08:45:54.287Z,97641.98
2023-01-19T08:49:10.633Z,97649.22
2023-01-19T08:52:30.162Z,97647.52
2023-01-19T08:55:47.289Z,97648.28
2023-01-19T08:59:09.967Z,97643.78
2023-01-19T09:02:27.807Z,97627.37
2023-01-19T09:05:46.468Z,97617.23
2023-01-19T09:09:02.819Z,97622.14
2023-01-19T09:12:19.228Z,97616.64
2023-01-19T09:15:38.390Z,97625.44
2023-01-19T09:18:54.892Z,97634.08
2023-01-19T09:22:11.032Z,97637.23
2023-01-19T09:25:27.518Z,97646.30
2023-01-19T09:28:44.987Z,97648.10
2023-01-19T09:32:01.086Z,97641.92
2023-01-19T09:35:18.782Z,97643.09
2023-01-19T09:38:36.603Z,97653.80
2023-01-19T09:41:57.413Z,97641.82
2023-01-19T09:45:20.896Z,97648.38
2023-01-19T09:48:50.586Z,97648.63
2023-01-19T09:52:08.897Z,97637.94
2023-01-19T09:55:31.554Z,97641.66
2023-01-19T09:58:51.176Z,97631.00
2023-01-19T10:02:16.743Z,97623.38
2023-01-19T10:05:39.549Z,97618.31
2023-01-19T10:09:01.015Z,97637.92
2023-01-19T10:12:24.081Z,97635.41
2023-01-19T10:15:55.839Z,97612.14
2023-01-19T10:19:23.553Z,97609.97
2023-01-19T10:22:44.040Z,97614.81
2023-01-19T10:26:01.109Z,97599.69
2023-01-19T10:29:24.218Z,97593.13
2023-01-19T10:32:47.957Z,97593.78
2023-01-19T10:36:04.645Z,97598.34
2023-01-19T10:39:24.517Z,97599.21
2023-01-19T10:42:41.129Z,97593.13
2023-01-19T10:45:59.816Z,97587.91
2023-01-19T10:49:30.913Z,97585.14
2023-01-19T10:52:50.462Z,97596.55
2023-01-19T10:56:25.995Z,97584.18
2023-01-19T10:59:46.771Z,97585.52
2023-01-19T11:03:04.197Z,97586.95
2023-01-19T11:06:37.257Z,97591.41
2023-01-19T11:09:54.586Z,97583.52
2023-01-19T11:13:17.349Z,97577.30
2023-01-19T11:16:42.668Z,97565.68
2023-01-19T11:20:10.271Z,97570.53
2023-01-19T11:23:38.403Z,97562.23
2023-01-19T11:27:01.688Z,97555.84
2023-01-19T11:30:26.846Z,97553.00
2023-01-19T11:33:51.897Z,97554.20
2023-01-19T11:37:11.583Z,97555.90
2023-01-19T11:40:28.808Z,97549.31
2023-01-19T11:43:49.360Z,97555.41
2023-01-19T11:47:10.625Z,97564.29
2023-01-19T11:50:39.464Z,97569.71
2023-01-19T11:54:00.436Z,97564.88
2023-01-19T11:57:22.566Z,97562.62
2023-01-19T12:00:46.691Z,97566.36
2023-01-19T12:04:10.040Z,97554.91
2023-01-19T12:10:47.278Z,97544.00
2023-01-19T12:14:06.414Z,97545.45
2023-01-19T12:17:30.014Z,97553.94
2023-01-19T12:20:49.685Z,97558.04
2023-01-19T12:24:19.941Z,97557.91
2023-01-19T12:27:48.786Z,97563.48
2023-01-19T12:31:09.952Z,97568.91
2023-01-19T12:34:49.792Z,97579.36
2023-01-19T12:41:40.520Z,97579.53
2023-01-19T12:45:00.687Z,97577.81
2023-01-19T12:48:32.416Z,97571.88
2023-01-19T12:51:49.488Z,97578.75
2023-01-19T12:55:23.861Z,97585.62
2023-01-19T12:58:42.048Z,97579.00
2023-01-19T13:02:56.453Z,97584.94
2023-01-19T13:09:44.015Z,97583.30
2023-01-19T13:13:25.393Z,97586.52
2023-01-19T13:17:17.462Z,97587.64
2023-01-19T13:20:47.164Z,97587.88
2023-01-19T13:24:08.009Z,97579.37
2023-01-19T13:27:43.325Z,97581.94
2023-01-19T13:31:08.022Z,97591.65
2023-01-19T13:34:28.793Z,97588.52
2023-01-19T13:41:03.860Z,97603.94
2023-01-19T13:44:24.586Z,97612.36
2023-01-19T13:47:47.518Z,97615.50
2023-01-19T13:56:31.135Z,97632.13
2023-01-19T13:59:47.600Z,97642.07
2023-01-19T14:03:08.047Z,97646.77
2023-01-19T14:06:47.645Z,97650.02
2023-01-19T14:10:20.524Z,97658.70
2023-01-19T14:13:41.809Z,97656.62
2023-01-19T14:17:00.225Z,97661.69
2023-01-19T14:20:38.130Z,97655.78
2023-01-19T14:24:00.139Z,97650.86
2023-01-19T14:27:29.541Z,97665.03
2023-01-19T14:31:00.012Z,97661.74
2023-01-19T14:34:45.012Z,97665.47
2023-01-19T14:41:17.852Z,97671.42
2023-01-19T14:44:40.916Z,97667.16
2023-01-19T14:48:07.257Z,97665.23
2023-01-19T14:51:27.964Z,97675.22
2023-01-19T14:56:00.555Z,97669.95
2023-01-19T15:04:12.947Z,97675.55
2023-01-19T15:10:50.372Z,97691.89
2023-01-19T15:14:07.661Z,97694.51
2023-01-19T15:17:30.916Z,97701.91
2023-01-19T15:20:47.189Z,97701.38
2023-01-19T15:27:24.585Z,97707.41
2023-01-19T15:30:43.989Z,97710.33
2023-01-19T15:34:00.947Z,97716.46
2023-01-19T15:40:46.932Z,97715.03
2023-01-19T15:44:11.165Z,97722.49
2023-01-19T15:47:33.502Z,97728.25
2023-01-19T15:50:51.192Z,97724.52
2023-01-19T15:54:08.859Z,97728.78
2023-01-19T15:57:26.338Z,97728.40
2023-01-19T16:00:45.274Z,97728.67
2023-01-19T16:04:01.698Z,97725.53
2023-01-19T16:07:19.077Z,97731.59
2023-01-19T16:10:35.650Z,97732.70
2023-01-19T16:13:56.276Z,97735.02
2023-01-19T16:17:13.039Z,97735.02
2023-01-19T16:20:29.777Z,97732.70
2023-01-19T16:23:46.332Z,97736.13
2023-01-19T16:27:04.811Z,97739.00
2023-01-19T16:30:25.053Z,97743.53
2023-01-19T16:33:41.582Z,97747.80
2023-01-19T16:37:01.007Z,97745.03
2023-01-19T16:40:21.161Z,97746.68
2023-01-19T16:43:37.456Z,97746.19
2023-01-19T16:46:55.363Z,97751.88
2023-01-19T16:50:14.127Z,97744.73
2023-01-19T16:53:30.519Z,97752.30
2023-01-19T16:56:47.277Z,97756.59
2023-01-19T17:00:03.590Z,97758.90
2023-01-19T17:03:20.390Z,97757.52
2023-01-19T17:06:36.803Z,97753.10
2023-01-19T17:09:53.016Z,97755.71
2023-01-19T17:13:09.550Z,97748.07
2023-01-19T17:16:26.768Z,97752.03
2023-01-19T17:19:45.845Z,97754.79
2023-01-19T17:23:02.491Z,97757.52
2023-01-19T17:26:21.915Z,97759.97
2023-01-19T17:29:40.193Z,97772.88
2023-01-19T17:33:03.411Z,97769.30
2023-01-19T17:36:25.900Z,97789.08
2023-01-19T17:39:44.063Z,97788.15
2023-01-19T17:43:00.542Z,97787.46
2023-01-19T17:46:22.123Z,97780.89
2023-01-19T17:49:38.861Z,97785.81
2023-01-19T17:52:57.257Z,97786.34
2023-01-19T17:56:17.111Z,97789.27
2023-01-19T17:59:35.784Z,97789.27
2023-01-19T18:02:56.872Z,97785.54
2023-01-19T18:06:14.797Z,97786.50
2023-01-19T18:09:32.786Z,97787.46
2023-01-19T18:12:50.518Z,97792.02
2023-01-19T18:16:14.721Z,97786.34
2023-01-19T18:19:32.039Z,97791.00
2023-01-19T18:22:48.992Z,97786.16
2023-01-19T18:26:15.245Z,97783.97
2023-01-19T18:29:31.910Z,97789.58
2023-01-19T18:32:48.383Z,97792.19
2023-01-19T18:36:08.435Z,97795.45
2023-01-19T18:39:25.052Z,97799.33
2023-01-19T18:42:51.027Z,97799.64
2023-01-19T18:46:09.384Z,97794.80
2023-01-19T18:49:33.065Z,97797.26
2023-01-19T18:52:58.440Z,97785.31
2023-01-19T18:56:16.996Z,97782.70
2023-01-19T18:59:37.036Z,97786.58
2023-01-19T19:02:51.238Z,97782.86
2023-01-19T19:06:12.873Z,97790.16
2023-01-19T19:09:32.358Z,97807.59
2023-01-19T19:12:51.642Z,97821.09
2023-01-19T19:16:18.933Z,97827.70
2023-01-19T19:19:41.920Z,97840.90
2023-01-19T19:22:58.751Z,97845.58
2023-01-19T19:26:18.671Z,97853.26
2023-01-19T19:29:44.908Z,97861.09
2023-01-19T19:33:08.859Z,97858.76
2023-01-19T19:36:26.021Z,97853.38
2023-01-19T19:39:47.334Z,97858.61
2023-01-19T19:43:08.472Z,97858.76
2023-01-19T19:46:30.008Z,97877.05
2023-01-19T19:49:49.302Z,97880.47
2023-01-19T19:53:12.712Z,97883.08
2023-01-19T19:56:31.571Z,97879.92
2023-01-19T19:59:49.284Z,97894.50
2023-01-19T20:03:05.630Z,97906.19
2023-01-19T20:06:30.808Z,97930.23
2023-01-19T20:09:48.387Z,97928.72
2023-01-19T20:13:09.229Z,97930.92
2023-01-19T20:16:29.080Z,97934.90
2023-01-19T20:19:48.571Z,97936.26
2023-01-19T20:23:05.478Z,97939.86
2023-01-19T20:26:27.470Z,97945.08
2023-01-19T20:29:51.467Z,97950.41
2023-01-19T20:33:11.828Z,97965.66
2023-01-19T20:36:36.389Z,97966.62
2023-01-19T20:39:57.443Z,97970.48
2023-01-19T20:43:16.107Z,97973.64
2023-01-19T20:46:37.336Z,97969.52
2023-01-19T20:49:54.684Z,97970.88
2023-01-19T20:53:11.289Z,97973.23
2023-01-19T20:56:28.284Z,97969.38
2023-01-19T20:59:45.901Z,97981.61
2023-01-19T21:03:02.511Z,97982.57
2023-01-19T21:06:19.857Z,97979.41
2023-01-19T21:09:36.598Z,97971.03
2023-01-19T21:12:53.095Z,97968.82
2023-01-19T21:16:12.492Z,97964.16
2023-01-19T21:19:29.063Z,97968.97
2023-01-19T21:22:46.467Z,97972.53
2023-01-19T21:26:05.793Z,97984.20
2023-01-19T21:29:19.939Z,97986.69
2023-01-19T21:32:36.132Z,98002.20
2023-01-19T21:36:00.210Z,98004.66
2023-01-19T21:39:17.510Z,98014.14
2023-01-19T21:42:34.417Z,98021.31
2023-01-19T21:45:51.595Z,98021.83
2023-01-19T21:49:11.577Z,98029.00
2023-01-19T21:52:27.785Z,98031.61
2023-01-19T21:55:46.551Z,98040.12
2023-01-19T21:59:04.167Z,98039.58
2023-01-19T22:02:37.740Z,98035.02
2023-01-19T22:05:44.109Z,98046.42
2023-01-19T22:09:01.532Z,98052.63
2023-01-19T22:12:18.224Z,98043.27
2023-01-19T22:15:35.980Z,98039.29
2023-01-19T22:18:59.547Z,98046.02
2023-01-19T22:22:15.912Z,98062.23
2023-01-19T22:25:32.872Z,98056.86
2023-01-19T22:28:50.838Z,98064.02
2023-01-19T22:32:07.007Z,98069.09
2023-01-19T22:35:25.109Z,98071.84
2023-01-19T22:38:41.488Z,98074.45
2023-01-19T22:41:58.079Z,98078.27
2023-01-19T22:45:16.533Z,98072.95
2023-01-19T22:48:32.888Z,98074.57
2023-01-19T22:51:49.320Z,98086.10
2023-01-19T22:55:05.659Z,98086.00
2023-01-19T22:58:22.310Z,98090.78
2023-01-19T23:01:42.552Z,98091.48
2023-01-19T23:04:59.340Z,98091.48
2023-01-19T23:08:16.345Z,98090.53
2023-01-19T23:11:36.092Z,98113.72
2023-01-19T23:14:53.662Z,98117.56
2023-01-19T23:18:09.896Z,98121.13
2023-01-19T23:21:28.886Z,98120.48
2023-01-19T23:24:45.496Z,98119.38
2023-01-19T23:28:01.813Z,98123.51
2023-01-19T23:31:28.624Z,98119.66
2023-01-19T23:34:45.310Z,98123.64
2023-01-19T23:38:01.475Z,98121.88
2023-01-19T23:41:18.798Z,98124.88
2023-01-19T23:44:35.006Z,98122.80
2023-01-19T23:47:51.593Z,98128.98
2023-01-19T23:51:12.499Z,98128.56
2023-01-19T23:54:28.834Z,98125.39
2023-01-19T23:57:45.138Z,98129.66
